DC09 weather

Georgetown Univ Hosp Helistop
Washington, District of Columbia, United States

Public forecast

Using degrees Fahrenheit for public forecast. Weather courtesy of forecast.io.

METAR (pilot weather report)

Closest report is Ronald Reagan Washington National Airport, 4.0 nm (7.4 km) SSE. Retrieved 2019/05/22 17:52 UTC (34 minutes ago):

KDCA 221752Z 19006KT 10SM FEW140 OVC250 21/05 A3027 RMK AO2 SLP251 T02060050 10211 20161 58005

TAF (pilot weather forecast)

Closest forecast is Ronald Reagan Washington National Airport, 4.0 nm (7.4 km) SSE. Retrieved 2019/05/22 18:24 UTC (2 minutes ago):

TAF KDCA 221723Z 2218/2324 17008KT P6SM FEW080 BKN200 FM230800 18007KT P6SM VCSH BKN050 FM231500 21008G16KT P6SM SCT050 BKN200 FM231900 22010G18KT P6SM BKN050 BKN200